Time;durP1;ratioP1;P1;durP2;ratioP2;P2;SDS_P1;SDS_P2;PMS_P1;PMS_P2;Temp;Humidity;BMP_temperature;BMP_pressure;BME280_temperature;BME280_humidity;BME280_pressure;Samples;Min_cycle;Max_cycle;Signal;HPM_P1;HPM_P2
2022/06/25 00:01:56;;;;;;;;;;;14.60;99.90;;;;;;4955842;29;19942;-77
2022/06/25 00:07:06;;;;;;;;;;;14.60;99.90;;;;;;4955814;29;19961;-76
2022/06/25 00:09:31;;;;;;;;;;;14.60;99.90;;;;;;4955746;29;19915;-77
2022/06/25 00:14:41;;;;;;;;;;;14.60;99.90;;;;;;4955506;29;19933;-78
2022/06/25 00:17:06;;;;;;;;;;;14.50;99.90;;;;;;4955713;29;20391;-76
2022/06/25 00:19:32;;;;;;;;;;;14.40;99.90;;;;;;4955629;29;19933;-78
2022/06/25 00:21:58;;;;;;;;;;;14.40;99.90;;;;;;4955654;29;19910;-76
2022/06/25 00:24:23;;;;;;;;;;;14.60;99.90;;;;;;4955479;29;19911;-77
2022/06/25 00:26:49;;;;;;;;;;;14.70;99.90;;;;;;4955593;29;19914;-78
2022/06/25 00:29:15;;;;;;;;;;;14.80;99.90;;;;;;4955506;29;19911;-79
2022/06/25 00:31:41;;;;;;;;;;;14.70;99.90;;;;;;4955440;29;19910;-77
2022/06/25 00:34:07;;;;;;;;;;;14.60;99.90;;;;;;4955761;29;19916;-77
2022/06/25 00:36:32;;;;;;;;;;;14.50;99.90;;;;;;4938305;29;19911;-78
2022/06/25 00:38:58;;;;;;;;;;;14.60;99.90;;;;;;4955460;29;20024;-77
2022/06/25 00:41:24;;;;;;;;;;;14.60;99.90;;;;;;4955475;29;19911;-77
2022/06/25 00:43:49;;;;;;;;;;;14.40;99.90;;;;;;4955332;29;20001;-77
2022/06/25 00:46:15;;;;;;;;;;;14.40;99.90;;;;;;4955414;29;19911;-77
2022/06/25 00:48:41;;;;;;;;;;;14.50;99.90;;;;;;4955215;29;19922;-77
2022/06/25 00:51:13;;;;;;;;;;;14.60;99.90;;;;;;4955859;29;19917;-77
2022/06/25 00:53:46;;;;;;;;;;;14.50;99.90;;;;;;4955633;29;19958;-77
2022/06/25 00:56:12;;;;;;;;;;;14.40;99.90;;;;;;4955316;29;19914;-76
2022/06/25 00:58:40;;;;;;;;;;;14.20;99.90;;;;;;4955312;29;19917;-76
2022/06/25 01:01:08;;;;;;;;;;;14.20;99.90;;;;;;4955313;29;20001;-78
2022/06/25 01:03:34;;;;;;;;;;;14.20;99.90;;;;;;4955268;29;19958;-78
2022/06/25 01:05:59;;;;;;;;;;;14.20;99.90;;;;;;4939196;29;19919;-77
2022/06/25 01:08:25;;;;;;;;;;;14.10;99.90;;;;;;4958880;29;19918;-77
2022/06/25 01:10:51;;;;;;;;;;;14.10;99.90;;;;;;4959040;29;19910;-77
2022/06/25 01:13:21;;;;;;;;;;;14.10;99.90;;;;;;4958815;29;19917;-77
2022/06/25 01:15:47;;;;;;;;;;;14.20;99.90;;;;;;4959581;29;20050;-77
2022/06/25 01:18:12;;;;;;;;;;;14.10;99.90;;;;;;4958688;29;19958;-79
2022/06/25 01:20:38;;;;;;;;;;;14.10;99.90;;;;;;4958685;29;19910;-77
2022/06/25 01:23:03;;;;;;;;;;;14.20;99.90;;;;;;4958725;29;20410;-79
2022/06/25 01:25:33;;;;;;;;;;;14.20;99.90;;;;;;4958824;29;19915;-78
2022/06/25 01:27:59;;;;;;;;;;;14.20;99.90;;;;;;4958530;29;19914;-77
2022/06/25 01:30:25;;;;;;;;;;;14.20;99.90;;;;;;4958461;29;20286;-77
2022/06/25 01:32:52;;;;;;;;;;;14.10;99.90;;;;;;4958528;29;19958;-78
2022/06/25 01:35:17;;;;;;;;;;;14.10;99.90;;;;;;4941213;29;20379;-79
2022/06/25 01:37:43;;;;;;;;;;;14.10;99.90;;;;;;4958618;29;19910;-78
2022/06/25 01:40:09;;;;;;;;;;;14.00;99.90;;;;;;4958313;29;20303;-77
2022/06/25 01:45:18;;;;;;;;;;;13.90;99.90;;;;;;4957985;29;20036;-77
2022/06/25 01:47:44;;;;;;;;;;;13.70;99.90;;;;;;4958119;29;19915;-78
2022/06/25 01:50:10;;;;;;;;;;;13.60;99.90;;;;;;4958046;29;19926;-77
2022/06/25 01:52:36;;;;;;;;;;;13.70;99.90;;;;;;4958084;29;19910;-78
2022/06/25 01:55:01;;;;;;;;;;;13.70;99.90;;;;;;4958005;29;19910;-77
2022/06/25 01:57:27;;;;;;;;;;;13.80;99.90;;;;;;4958025;29;19910;-78
2022/06/25 01:59:53;;;;;;;;;;;13.90;99.90;;;;;;4957986;29;20278;-78
2022/06/25 02:02:18;;;;;;;;;;;13.90;99.90;;;;;;4957973;29;20080;-77
2022/06/25 02:04:44;;;;;;;;;;;13.70;99.90;;;;;;4957907;29;19911;-77
2022/06/25 02:07:09;;;;;;;;;;;13.60;99.90;;;;;;4957795;29;20367;-76
2022/06/25 02:09:35;;;;;;;;;;;13.80;99.90;;;;;;4958029;29;19997;-78
2022/06/25 02:12:01;;;;;;;;;;;13.80;99.90;;;;;;4957761;29;20361;-76
2022/06/25 02:14:26;;;;;;;;;;;13.90;99.90;;;;;;4957718;29;19910;-78
2022/06/25 02:16:52;;;;;;;;;;;13.90;99.90;;;;;;4957121;28;20340;-77
2022/06/25 02:19:18;;;;;;;;;;;14.00;99.90;;;;;;4957248;29;19942;-78
2022/06/25 02:21:44;;;;;;;;;;;14.10;99.90;;;;;;4957589;29;19911;-78
2022/06/25 02:24:09;;;;;;;;;;;14.00;99.90;;;;;;4957498;29;19915;-80
2022/06/25 02:26:35;;;;;;;;;;;14.10;99.90;;;;;;4957526;29;19957;-77
2022/06/25 02:29:00;;;;;;;;;;;14.20;99.90;;;;;;4957422;29;19917;-77
2022/06/25 02:31:26;;;;;;;;;;;14.10;99.90;;;;;;4940213;29;19953;-77
2022/06/25 02:33:52;;;;;;;;;;;14.10;99.90;;;;;;4957391;29;19910;-77
2022/06/25 02:36:18;;;;;;;;;;;14.00;99.90;;;;;;4957310;29;20429;-78
2022/06/25 02:38:43;;;;;;;;;;;14.00;99.90;;;;;;4957208;29;19910;-77
2022/06/25 02:41:09;;;;;;;;;;;13.90;99.90;;;;;;4957415;29;20351;-78
2022/06/25 02:43:35;;;;;;;;;;;13.90;99.90;;;;;;4957065;29;19915;-77
2022/06/25 02:46:00;;;;;;;;;;;13.90;99.90;;;;;;4957117;29;19910;-77
2022/06/25 02:48:26;;;;;;;;;;;14.10;99.90;;;;;;4956833;29;20394;-77
2022/06/25 02:50:52;;;;;;;;;;;14.00;99.90;;;;;;4957186;29;19957;-77
2022/06/25 02:53:17;;;;;;;;;;;14.00;99.90;;;;;;4957117;29;20322;-77
2022/06/25 03:01:11;;;;;;;;;;;13.60;99.90;;;;;;4956998;29;20005;-78
2022/06/25 03:03:37;;;;;;;;;;;13.60;99.90;;;;;;4956719;29;20399;-77
2022/06/25 03:06:02;;;;;;;;;;;13.80;99.90;;;;;;4956716;29;20045;-77
2022/06/25 03:08:28;;;;;;;;;;;13.90;99.90;;;;;;4957075;29;19954;-78
2022/06/25 03:10:54;;;;;;;;;;;14.00;99.90;;;;;;4956701;29;20405;-77
2022/06/25 03:13:19;;;;;;;;;;;14.10;99.90;;;;;;4956628;29;19911;-78
2022/06/25 03:15:45;;;;;;;;;;;13.90;99.90;;;;;;4956625;29;19910;-77
2022/06/25 03:18:11;;;;;;;;;;;13.90;99.90;;;;;;4956604;29;19910;-77
2022/06/25 03:20:36;;;;;;;;;;;13.90;99.90;;;;;;4956918;29;19953;-77
2022/06/25 03:23:02;;;;;;;;;;;13.80;99.90;;;;;;4956362;29;19918;-77
2022/06/25 03:25:28;;;;;;;;;;;13.80;99.90;;;;;;4956466;29;19993;-78
2022/06/25 03:27:53;;;;;;;;;;;13.80;99.90;;;;;;4956255;28;19910;-77
2022/06/25 03:30:19;;;;;;;;;;;13.70;99.90;;;;;;4955911;29;19961;-77
2022/06/25 03:32:44;;;;;;;;;;;13.70;99.90;;;;;;4956452;29;19921;-77
2022/06/25 03:35:10;;;;;;;;;;;13.80;99.90;;;;;;4956435;29;19911;-78
2022/06/25 03:37:35;;;;;;;;;;;13.80;99.90;;;;;;4956277;29;19911;-78
2022/06/25 03:40:01;;;;;;;;;;;13.80;99.90;;;;;;4956164;29;20394;-77
2022/06/25 03:42:27;;;;;;;;;;;13.90;99.90;;;;;;4956046;29;19921;-78
2022/06/25 03:44:52;;;;;;;;;;;14.10;99.90;;;;;;4956122;29;19957;-77
2022/06/25 03:47:18;;;;;;;;;;;14.20;99.90;;;;;;4956134;29;20352;-77
2022/06/25 03:49:43;;;;;;;;;;;14.00;99.90;;;;;;4955844;29;19931;-78
2022/06/25 03:52:09;;;;;;;;;;;14.00;99.90;;;;;;4955889;29;20073;-77
2022/06/25 03:54:37;;;;;;;;;;;13.90;99.90;;;;;;4956326;29;19917;-77
2022/06/25 03:57:03;;;;;;;;;;;14.00;99.90;;;;;;4955769;29;19911;-78
2022/06/25 03:59:29;;;;;;;;;;;13.90;99.90;;;;;;4955811;29;19934;-78
2022/06/25 04:01:55;;;;;;;;;;;14.00;99.90;;;;;;4955782;29;19918;-77
2022/06/25 04:04:20;;;;;;;;;;;13.90;99.90;;;;;;4955788;29;19965;-77
2022/06/25 04:06:46;;;;;;;;;;;13.90;99.90;;;;;;4956011;29;19965;-77
2022/06/25 04:09:12;;;;;;;;;;;13.90;99.90;;;;;;4956054;29;19910;-77
2022/06/25 04:11:38;;;;;;;;;;;14.00;99.90;;;;;;4955912;29;19961;-78
2022/06/25 04:14:03;;;;;;;;;;;13.90;99.90;;;;;;4938406;29;20010;-78
2022/06/25 04:16:29;;;;;;;;;;;13.90;99.90;;;;;;4955576;29;19915;-77
2022/06/25 04:18:55;;;;;;;;;;;14.00;99.90;;;;;;4955633;29;19993;-77
2022/06/25 04:21:21;;;;;;;;;;;14.00;99.90;;;;;;4955680;29;19911;-78
2022/06/25 04:23:46;;;;;;;;;;;13.80;99.90;;;;;;4955758;29;19914;-77
2022/06/25 04:26:12;;;;;;;;;;;13.70;99.90;;;;;;4955641;29;19914;-76
2022/06/25 04:31:22;;;;;;;;;;;13.90;99.90;;;;;;4955255;29;19960;-77
2022/06/25 04:33:47;;;;;;;;;;;14.00;99.90;;;;;;4955713;29;19914;-77
2022/06/25 04:36:13;;;;;;;;;;;14.00;99.90;;;;;;4955562;29;19910;-78
2022/06/25 04:38:38;;;;;;;;;;;14.10;99.90;;;;;;4955527;29;19911;-78
2022/06/25 04:41:04;;;;;;;;;;;14.10;99.90;;;;;;4956913;28;19914;-78
2022/06/25 04:43:29;;;;;;;;;;;14.40;99.90;;;;;;4959637;29;20374;-78
2022/06/25 04:45:55;;;;;;;;;;;14.40;99.90;;;;;;4942084;29;19933;-78
2022/06/25 04:48:21;;;;;;;;;;;14.40;99.90;;;;;;4959136;29;19910;-77
2022/06/25 04:50:47;;;;;;;;;;;14.60;99.90;;;;;;4959743;29;19922;-76
2022/06/25 04:53:13;;;;;;;;;;;14.80;99.90;;;;;;4959223;29;19911;-78
2022/06/25 04:55:38;;;;;;;;;;;14.90;99.90;;;;;;4959134;29;19911;-78
2022/06/25 04:58:04;;;;;;;;;;;15.00;99.90;;;;;;4959065;29;19917;-77
2022/06/25 05:00:29;;;;;;;;;;;14.90;99.90;;;;;;4959044;29;19960;-77
2022/06/25 05:02:55;;;;;;;;;;;14.90;99.90;;;;;;4941708;29;19937;-76
2022/06/25 05:05:21;;;;;;;;;;;14.80;99.90;;;;;;4959014;29;19950;-78
2022/06/25 05:07:46;;;;;;;;;;;15.00;99.90;;;;;;4958918;29;19918;-77
2022/06/25 05:10:12;;;;;;;;;;;15.00;99.90;;;;;;4958870;29;20402;-78
2022/06/25 05:15:35;;;;;;;;;;;15.30;99.90;;;;;;4926286;29;19917;-77
2022/06/25 05:18:01;;;;;;;;;;;15.20;99.90;;;;;;4958766;29;19911;-78
2022/06/25 05:20:26;;;;;;;;;;;15.20;99.90;;;;;;4958716;29;20006;-77
2022/06/25 05:22:52;;;;;;;;;;;15.40;99.90;;;;;;4958873;29;19918;-78
2022/06/25 05:25:19;;;;;;;;;;;15.60;99.90;;;;;;4959160;29;20394;-77
2022/06/25 05:27:44;;;;;;;;;;;15.80;99.90;;;;;;4959029;29;19910;-79
2022/06/25 05:30:10;;;;;;;;;;;15.90;99.90;;;;;;4958520;29;19933;-78
2022/06/25 05:32:36;;;;;;;;;;;16.00;99.90;;;;;;4958864;29;20001;-78
2022/06/25 05:35:02;;;;;;;;;;;16.00;99.90;;;;;;4958471;29;19933;-78
2022/06/25 05:37:27;;;;;;;;;;;16.00;99.90;;;;;;4958424;29;19918;-79
2022/06/25 05:39:53;;;;;;;;;;;15.90;99.90;;;;;;4940935;29;19911;-78
2022/06/25 05:42:20;;;;;;;;;;;15.90;99.90;;;;;;4958224;29;19957;-77
2022/06/25 05:44:46;;;;;;;;;;;15.90;99.90;;;;;;4958462;29;20271;-80
2022/06/25 05:47:11;;;;;;;;;;;16.10;99.90;;;;;;4958322;29;19918;-79
2022/06/25 05:49:37;;;;;;;;;;;16.20;99.90;;;;;;4958026;29;19923;-78
2022/06/25 05:52:03;;;;;;;;;;;16.30;99.90;;;;;;4958009;28;19926;-79
2022/06/25 05:54:29;;;;;;;;;;;16.20;99.90;;;;;;4958093;29;19918;-79
2022/06/25 05:56:54;;;;;;;;;;;16.00;99.90;;;;;;4958252;29;20532;-79
2022/06/25 05:59:20;;;;;;;;;;;16.00;99.90;;;;;;4958012;29;19910;-79
2022/06/25 06:01:46;;;;;;;;;;;16.10;99.90;;;;;;4957888;29;20001;-80
2022/06/25 06:04:11;;;;;;;;;;;16.20;99.90;;;;;;4957992;29;20268;-78
2022/06/25 06:06:37;;;;;;;;;;;16.20;99.90;;;;;;4957853;29;20001;-79
2022/06/25 06:09:03;;;;;;;;;;;16.30;99.90;;;;;;4957814;29;19917;-78
2022/06/25 06:11:28;;;;;;;;;;;16.50;99.90;;;;;;4940519;29;19910;-78
2022/06/25 06:13:54;;;;;;;;;;;16.60;99.90;;;;;;4957782;29;19946;-78
2022/06/25 06:16:19;;;;;;;;;;;16.50;99.90;;;;;;4957768;29;20041;-78
2022/06/25 06:18:45;;;;;;;;;;;16.60;99.90;;;;;;4957699;29;19911;-78
2022/06/25 06:21:10;;;;;;;;;;;16.90;99.90;;;;;;4940422;29;19910;-78
2022/06/25 06:23:36;;;;;;;;;;;17.30;99.90;;;;;;4957744;29;19914;-78
2022/06/25 06:26:02;;;;;;;;;;;17.50;99.90;;;;;;4957850;29;19957;-78
2022/06/25 06:28:27;;;;;;;;;;;17.90;99.90;;;;;;4957589;29;20265;-78
2022/06/25 06:30:53;;;;;;;;;;;17.90;99.90;;;;;;4957561;29;19958;-79
2022/06/25 06:33:18;;;;;;;;;;;18.10;99.90;;;;;;4957485;29;19910;-80
2022/06/25 06:35:44;;;;;;;;;;;18.20;99.90;;;;;;4957344;29;19962;-79
2022/06/25 06:38:09;;;;;;;;;;;18.50;99.90;;;;;;4940078;29;19914;-78
2022/06/25 06:40:35;;;;;;;;;;;18.20;99.90;;;;;;4957586;29;19936;-78
2022/06/25 06:43:01;;;;;;;;;;;18.20;99.90;;;;;;4957119;29;19978;-78
2022/06/25 06:45:26;;;;;;;;;;;18.00;99.90;;;;;;4957188;29;19914;-79
2022/06/25 06:47:52;;;;;;;;;;;18.10;99.90;;;;;;4956915;29;19934;-79
2022/06/25 06:50:18;;;;;;;;;;;17.90;99.90;;;;;;4956684;29;19953;-79
2022/06/25 06:52:43;;;;;;;;;;;17.70;99.90;;;;;;4957010;29;20009;-79
2022/06/25 06:55:09;;;;;;;;;;;17.80;99.90;;;;;;4957020;29;19914;-79
2022/06/25 06:57:37;;;;;;;;;;;18.20;99.90;;;;;;4956472;29;20215;-78
2022/06/25 07:00:04;;;;;;;;;;;18.10;99.90;;;;;;4956875;29;20282;-79
2022/06/25 07:02:30;;;;;;;;;;;17.90;99.90;;;;;;4956786;29;19925;-79
2022/06/25 07:04:56;;;;;;;;;;;18.10;99.90;;;;;;4956273;28;19911;-79
2022/06/25 07:07:21;;;;;;;;;;;17.90;99.90;;;;;;4956756;29;19911;-80
2022/06/25 07:09:47;;;;;;;;;;;18.30;99.90;;;;;;4956730;29;19910;-79
2022/06/25 07:12:13;;;;;;;;;;;18.20;99.90;;;;;;4956744;29;20001;-80
2022/06/25 07:14:38;;;;;;;;;;;18.20;99.90;;;;;;4956618;29;19910;-79
2022/06/25 07:17:04;;;;;;;;;;;18.10;99.90;;;;;;4956593;29;20371;-78
2022/06/25 07:19:29;;;;;;;;;;;17.90;99.90;;;;;;4956542;29;19919;-78
2022/06/25 07:21:57;;;;;;;;;;;17.90;99.90;;;;;;4956647;29;20283;-78
2022/06/25 07:24:23;;;;;;;;;;;18.00;99.90;;;;;;4956737;29;19961;-78
2022/06/25 07:26:48;;;;;;;;;;;18.20;99.90;;;;;;4956650;29;19910;-79
2022/06/25 07:29:14;;;;;;;;;;;18.40;99.90;;;;;;4956292;29;19917;-78
2022/06/25 07:31:40;;;;;;;;;;;18.80;99.90;;;;;;4956249;29;20003;-78
2022/06/25 07:34:06;;;;;;;;;;;19.00;99.90;;;;;;4956111;29;19910;-79
2022/06/25 07:36:31;;;;;;;;;;;18.80;99.90;;;;;;4956185;29;20323;-80
2022/06/25 07:38:57;;;;;;;;;;;18.70;99.90;;;;;;4956152;29;20390;-80
2022/06/25 07:41:23;;;;;;;;;;;18.60;99.90;;;;;;4956062;29;19917;-79
2022/06/25 07:43:49;;;;;;;;;;;18.70;99.90;;;;;;4956397;29;20465;-80
2022/06/25 07:46:14;;;;;;;;;;;18.80;99.90;;;;;;4956279;29;19941;-80
2022/06/25 07:48:41;;;;;;;;;;;18.80;99.90;;;;;;4955739;29;19919;-79
2022/06/25 07:54:05;;;;;;;;;;;18.60;99.90;;;;;;4954694;29;19957;-79
2022/06/25 07:56:31;;;;;;;;;;;18.80;99.90;;;;;;4956159;29;19911;-79
2022/06/25 07:58:56;;;;;;;;;;;18.90;99.90;;;;;;4955906;29;20308;-78
2022/06/25 08:01:22;;;;;;;;;;;19.20;99.90;;;;;;4955827;29;20024;-79
2022/06/25 08:03:47;;;;;;;;;;;19.20;99.90;;;;;;4955711;29;19921;-79
2022/06/25 08:06:13;;;;;;;;;;;18.90;99.90;;;;;;4956114;29;19910;-79
2022/06/25 08:08:39;;;;;;;;;;;19.20;99.90;;;;;;4955783;29;19992;-78
2022/06/25 08:11:05;;;;;;;;;;;19.90;99.90;;;;;;4956008;29;19946;-80
2022/06/25 08:13:31;;;;;;;;;;;19.70;99.90;;;;;;4956182;29;20009;-79
2022/06/25 08:15:57;;;;;;;;;;;19.80;99.90;;;;;;4955700;28;19915;-78
2022/06/25 08:18:22;;;;;;;;;;;19.60;99.90;;;;;;4955668;29;19911;-79
2022/06/25 08:20:48;;;;;;;;;;;19.60;99.90;;;;;;4962617;28;19910;-79
2022/06/25 08:23:14;;;;;;;;;;;19.80;99.90;;;;;;4975241;28;19941;-79
2022/06/25 08:25:40;;;;;;;;;;;20.20;99.90;;;;;;4965155;28;19962;-79
2022/06/25 08:28:06;;;;;;;;;;;20.00;99.90;;;;;;4955787;29;19910;-79
2022/06/25 08:30:32;;;;;;;;;;;19.60;99.90;;;;;;4955788;29;19915;-79
2022/06/25 08:32:57;;;;;;;;;;;19.70;99.90;;;;;;4955440;29;20401;-79
2022/06/25 08:35:23;;;;;;;;;;;19.70;99.90;;;;;;4955495;29;19910;-79
2022/06/25 08:37:49;;;;;;;;;;;19.70;99.90;;;;;;4955688;28;19957;-79
2022/06/25 08:40:18;;;;;;;;;;;19.90;99.90;;;;;;4955641;28;19973;-79
2022/06/25 08:42:44;;;;;;;;;;;20.00;99.90;;;;;;4955630;29;19954;-79
2022/06/25 08:45:10;;;;;;;;;;;19.90;99.90;;;;;;4955362;28;20363;-79
2022/06/25 08:47:42;;;;;;;;;;;20.10;99.90;;;;;;4955439;28;19910;-77
2022/06/25 08:50:08;;;;;;;;;;;20.30;99.90;;;;;;4955211;29;20372;-79
2022/06/25 08:52:34;;;;;;;;;;;20.40;99.90;;;;;;4955363;29;20001;-80
2022/06/25 08:55:00;;;;;;;;;;;20.40;99.90;;;;;;4955433;28;19921;-78
2022/06/25 08:57:26;;;;;;;;;;;20.30;99.90;;;;;;4955615;29;19938;-80
2022/06/25 08:59:51;;;;;;;;;;;20.80;99.90;;;;;;4955450;29;19949;-78
2022/06/25 09:02:17;;;;;;;;;;;21.20;99.90;;;;;;4955354;29;19922;-79
2022/06/25 09:04:42;;;;;;;;;;;21.30;99.90;;;;;;4955333;29;20387;-80
2022/06/25 09:07:15;;;;;;;;;;;21.10;99.90;;;;;;4973466;28;19914;-79
2022/06/25 09:09:50;;;;;;;;;;;21.10;99.90;;;;;;4974836;28;19989;-79
2022/06/25 09:12:16;;;;;;;;;;;21.40;99.90;;;;;;4974562;28;19910;-78
2022/06/25 09:14:42;;;;;;;;;;;21.30;99.90;;;;;;4974830;28;19910;-78
2022/06/25 09:17:10;;;;;;;;;;;21.80;99.90;;;;;;4974154;28;20344;-79
2022/06/25 09:19:36;;;;;;;;;;;21.90;99.50;;;;;;4974760;28;19934;-79
2022/06/25 09:22:06;;;;;;;;;;;21.70;98.30;;;;;;4973522;28;19936;-79
2022/06/25 09:24:42;;;;;;;;;;;22.50;98.10;;;;;;4974379;28;19914;-79
2022/06/25 09:27:08;;;;;;;;;;;23.20;97.10;;;;;;4957205;28;19918;-80
2022/06/25 09:29:39;;;;;;;;;;;23.00;96.90;;;;;;4958560;29;19911;-79
2022/06/25 09:32:05;;;;;;;;;;;23.40;95.50;;;;;;4958519;29;20359;-80
2022/06/25 09:34:35;;;;;;;;;;;24.10;94.20;;;;;;4958829;29;19917;-80
2022/06/25 09:37:20;;;;;;;;;;;23.70;94.20;;;;;;4962172;28;19921;-80
2022/06/25 09:39:46;;;;;;;;;;;24.00;93.90;;;;;;4958541;29;19933;-79
2022/06/25 09:42:19;;;;;;;;;;;23.90;93.50;;;;;;4941222;29;19926;-79
2022/06/25 09:44:45;;;;;;;;;;;24.00;93.50;;;;;;4958448;29;19917;-80
2022/06/25 09:47:12;;;;;;;;;;;23.80;93.60;;;;;;4957921;28;19914;-80
2022/06/25 09:49:38;;;;;;;;;;;24.30;92.30;;;;;;4958368;28;19922;-79
2022/06/25 09:52:03;;;;;;;;;;;25.20;90.50;;;;;;4958081;28;19961;-78
2022/06/25 09:54:30;;;;;;;;;;;25.50;89.20;;;;;;4958314;28;19910;-79
2022/06/25 09:56:56;;;;;;;;;;;26.20;89.30;;;;;;4957853;28;20389;-80
2022/06/25 09:59:23;;;;;;;;;;;26.10;84.90;;;;;;4960104;29;20271;-81
2022/06/25 10:01:49;;;;;;;;;;;26.20;81.30;;;;;;4956940;28;19911;-79
2022/06/25 10:04:14;;;;;;;;;;;25.20;83.20;;;;;;4957847;29;19920;-80
2022/06/25 10:06:40;;;;;;;;;;;24.70;84.80;;;;;;4966076;28;19916;-79
2022/06/25 10:09:07;;;;;;;;;;;24.10;88.30;;;;;;4977399;28;19919;-80
2022/06/25 10:11:34;;;;;;;;;;;24.00;88.60;;;;;;4977718;28;19914;-79
2022/06/25 10:14:00;;;;;;;;;;;24.60;84.50;;;;;;4977145;28;19914;-79
2022/06/25 10:16:27;;;;;;;;;;;24.40;86.40;;;;;;4976870;28;20008;-80
2022/06/25 10:18:53;;;;;;;;;;;24.60;87.10;;;;;;4977045;28;19925;-79
2022/06/25 10:21:20;;;;;;;;;;;26.10;81.70;;;;;;4977099;28;19910;-79
2022/06/25 10:23:48;;;;;;;;;;;26.70;80.50;;;;;;4977234;28;19920;-80
2022/06/25 10:26:13;;;;;;;;;;;27.70;77.20;;;;;;4976804;28;19911;-80
2022/06/25 10:28:41;;;;;;;;;;;29.10;75.90;;;;;;4976871;28;19921;-79
2022/06/25 10:31:14;;;;;;;;;;;28.30;71.10;;;;;;4959670;28;19977;-82
2022/06/25 10:33:53;;;;;;;;;;;27.00;74.10;;;;;;4977063;28;20362;-80
2022/06/25 10:36:38;;;;;;;;;;;26.10;72.10;;;;;;4976509;28;19911;-79
2022/06/25 10:39:22;;;;;;;;;;;25.50;72.70;;;;;;4976042;28;20259;-79
2022/06/25 10:44:50;;;;;;;;;;;24.20;74.30;;;;;;4975631;28;19984;-80
2022/06/25 10:47:16;;;;;;;;;;;24.00;73.40;;;;;;4975677;28;20318;-79
2022/06/25 10:49:41;;;;;;;;;;;23.70;75.90;;;;;;4976006;28;19922;-79
2022/06/25 10:52:07;;;;;;;;;;;23.40;77.40;;;;;;4976036;28;19911;-79
2022/06/25 10:54:36;;;;;;;;;;;22.20;81.60;;;;;;4975994;28;19957;-79
2022/06/25 10:57:02;;;;;;;;;;;20.70;92.70;;;;;;4975469;28;20349;-80
2022/06/25 10:59:55;;;;;;;;;;;20.00;97.30;;;;;;4975380;28;20376;-80
2022/06/25 11:02:23;;;;;;;;;;;19.70;98.70;;;;;;4973542;28;20398;-78
2022/06/25 11:04:50;;;;;;;;;;;19.70;99.00;;;;;;4973956;28;19910;-80
2022/06/25 11:07:20;;;;;;;;;;;20.30;94.50;;;;;;4973526;28;19972;-80
2022/06/25 11:09:54;;;;;;;;;;;21.80;93.00;;;;;;4973759;28;19918;-79
2022/06/25 11:12:19;;;;;;;;;;;23.70;90.20;;;;;;4973806;28;19911;-80
2022/06/25 11:15:05;;;;;;;;;;;24.40;86.60;;;;;;4974190;28;19921;-80
2022/06/25 11:17:31;;;;;;;;;;;24.40;84.20;;;;;;4974655;28;20302;-78
2022/06/25 11:20:03;;;;;;;;;;;24.60;77.70;;;;;;4975693;28;19910;-80
2022/06/25 11:22:29;;;;;;;;;;;25.00;77.10;;;;;;4975267;28;19964;-79
2022/06/25 11:30:23;;;;;;;;;;;26.90;67.90;;;;;;4975054;28;20405;-80
2022/06/25 11:32:50;;;;;;;;;;;26.60;64.90;;;;;;4975314;28;19910;-79
2022/06/25 11:35:16;;;;;;;;;;;26.80;65.80;;;;;;4975230;28;19910;-80
2022/06/25 11:37:42;;;;;;;;;;;26.70;63.70;;;;;;4975113;28;20001;-80
2022/06/25 11:40:17;;;;;;;;;;;27.30;62.70;;;;;;4975083;28;20275;-79
2022/06/25 11:42:43;;;;;;;;;;;27.40;60.80;;;;;;4974080;28;19965;-80
2022/06/25 11:45:09;;;;;;;;;;;28.00;59.10;;;;;;4974979;28;20299;-79
2022/06/25 11:47:35;;;;;;;;;;;27.00;62.30;;;;;;4974697;28;19997;-79
2022/06/25 11:50:05;;;;;;;;;;;25.80;61.60;;;;;;4974761;28;20428;-79
2022/06/25 11:52:31;;;;;;;;;;;24.70;64.00;;;;;;4975037;28;19961;-78
2022/06/25 11:54:56;;;;;;;;;;;23.60;65.00;;;;;;4973633;28;19910;-79
2022/06/25 11:57:23;;;;;;;;;;;22.90;67.20;;;;;;4974429;28;19910;-79
2022/06/25 11:59:49;;;;;;;;;;;22.40;70.00;;;;;;4974953;28;20299;-79
2022/06/25 12:02:15;;;;;;;;;;;22.00;70.60;;;;;;4974730;28;19914;-79
2022/06/25 12:04:55;;;;;;;;;;;21.30;76.50;;;;;;4974841;28;19918;-80
2022/06/25 12:07:24;;;;;;;;;;;20.90;79.70;;;;;;4974301;28;19921;-79
2022/06/25 12:09:51;;;;;;;;;;;20.70;80.10;;;;;;4957277;28;20433;-79
2022/06/25 12:12:17;;;;;;;;;;;20.70;78.90;;;;;;4974627;28;19910;-80
2022/06/25 12:14:43;;;;;;;;;;;20.70;79.00;;;;;;4974716;28;19910;-78
2022/06/25 12:17:10;;;;;;;;;;;21.00;79.10;;;;;;4974141;28;19917;-81
2022/06/25 12:19:48;;;;;;;;;;;21.30;78.20;;;;;;4974648;28;19937;-79
2022/06/25 12:22:29;;;;;;;;;;;21.60;79.30;;;;;;4974280;28;19938;-79
2022/06/25 12:25:00;;;;;;;;;;;22.10;78.10;;;;;;4974629;28;19937;-81
2022/06/25 12:27:26;;;;;;;;;;;23.50;76.20;;;;;;4974067;28;19960;-79
2022/06/25 12:29:54;;;;;;;;;;;23.80;73.20;;;;;;4974558;28;19965;-79
2022/06/25 12:32:19;;;;;;;;;;;25.10;73.60;;;;;;4974444;28;20002;-79
2022/06/25 12:34:46;;;;;;;;;;;26.10;69.30;;;;;;4974229;28;20041;-80
2022/06/25 12:37:25;;;;;;;;;;;26.70;69.90;;;;;;4974061;28;19910;-79
2022/06/25 12:39:51;;;;;;;;;;;27.50;67.90;;;;;;4974426;28;19914;-81
2022/06/25 12:42:17;;;;;;;;;;;28.10;64.90;;;;;;4957092;28;19961;-80
2022/06/25 12:44:44;;;;;;;;;;;28.00;62.90;;;;;;4974233;28;20366;-81
2022/06/25 12:47:11;;;;;;;;;;;28.00;63.70;;;;;;4974008;28;20391;-79
2022/06/25 12:49:43;;;;;;;;;;;28.30;62.80;;;;;;4974072;28;19922;-79
2022/06/25 12:52:09;;;;;;;;;;;27.70;59.70;;;;;;4974326;28;19950;-80
2022/06/25 12:54:48;;;;;;;;;;;27.30;62.30;;;;;;4974164;28;20386;-79
2022/06/25 12:57:18;;;;;;;;;;;28.60;61.70;;;;;;4956389;28;19968;-81
2022/06/25 12:59:45;;;;;;;;;;;28.80;59.60;;;;;;4974116;28;20367;-80
2022/06/25 13:02:10;;;;;;;;;;;29.50;58.40;;;;;;4975715;28;19921;-79
2022/06/25 13:04:36;;;;;;;;;;;28.30;59.20;;;;;;4978024;28;19910;-80
2022/06/25 13:07:01;;;;;;;;;;;26.20;58.90;;;;;;4970637;28;20379;-79
2022/06/25 13:09:27;;;;;;;;;;;26.20;61.00;;;;;;4958480;28;20001;-79
2022/06/25 13:11:52;;;;;;;;;;;26.40;57.00;;;;;;4958600;28;20393;-80
2022/06/25 13:14:18;;;;;;;;;;;27.10;59.10;;;;;;4958582;28;19911;-80
2022/06/25 13:16:44;;;;;;;;;;;28.30;58.90;;;;;;4958316;28;19921;-80
2022/06/25 13:19:09;;;;;;;;;;;29.00;58.60;;;;;;4958544;29;19914;-80
2022/06/25 13:21:35;;;;;;;;;;;28.40;56.50;;;;;;4958217;29;20374;-79
2022/06/25 13:24:00;;;;;;;;;;;27.50;57.30;;;;;;4958279;29;19914;-79
2022/06/25 13:26:26;;;;;;;;;;;25.90;58.10;;;;;;4958052;28;19910;-80
2022/06/25 13:28:52;;;;;;;;;;;26.00;58.70;;;;;;4958210;29;19910;-79
2022/06/25 13:31:17;;;;;;;;;;;26.40;55.20;;;;;;4958476;29;20287;-81
2022/06/25 13:33:43;;;;;;;;;;;26.60;56.50;;;;;;4957913;29;20371;-79
2022/06/25 13:36:08;;;;;;;;;;;28.20;56.20;;;;;;4958211;29;19910;-80
2022/06/25 13:38:35;;;;;;;;;;;28.90;54.30;;;;;;4957600;28;20346;-79
2022/06/25 13:41:01;;;;;;;;;;;28.10;55.60;;;;;;4958030;29;19918;-80
2022/06/25 13:43:26;;;;;;;;;;;28.30;56.80;;;;;;4958018;29;19922;-79
2022/06/25 13:45:52;;;;;;;;;;;28.80;56.10;;;;;;4957811;29;19919;-79
2022/06/25 13:48:18;;;;;;;;;;;28.20;54.30;;;;;;4957481;28;19947;-81
2022/06/25 13:50:43;;;;;;;;;;;28.60;56.30;;;;;;4957895;29;20002;-79
2022/06/25 13:53:10;;;;;;;;;;;28.60;52.70;;;;;;4957890;29;20431;-80
2022/06/25 13:55:36;;;;;;;;;;;29.50;52.10;;;;;;4957852;28;19914;-80
2022/06/25 13:58:02;;;;;;;;;;;28.50;53.60;;;;;;4957296;28;19918;-79
2022/06/25 14:00:28;;;;;;;;;;;28.50;54.20;;;;;;4957691;28;20371;-81
2022/06/25 14:02:54;;;;;;;;;;;29.40;54.60;;;;;;4957408;29;19918;-81
2022/06/25 14:05:19;;;;;;;;;;;28.70;54.40;;;;;;4957806;29;19957;-80
2022/06/25 14:07:45;;;;;;;;;;;26.80;54.80;;;;;;4939853;29;19910;-80
2022/06/25 14:10:12;;;;;;;;;;;25.70;57.20;;;;;;4957273;29;19946;-80
2022/06/25 14:12:38;;;;;;;;;;;26.00;57.50;;;;;;4957644;28;19938;-79
2022/06/25 14:15:04;;;;;;;;;;;25.60;58.30;;;;;;4957441;29;20434;-79
2022/06/25 14:17:29;;;;;;;;;;;24.90;59.20;;;;;;4957186;28;19910;-80
2022/06/25 14:19:55;;;;;;;;;;;24.10;58.80;;;;;;4957255;29;20268;-80
2022/06/25 14:22:21;;;;;;;;;;;23.40;59.20;;;;;;4957112;28;19993;-80
2022/06/25 14:27:30;;;;;;;;;;;22.30;66.70;;;;;;4956740;28;19922;-78
2022/06/25 14:29:56;;;;;;;;;;;22.20;66.90;;;;;;4957102;28;19914;-79
2022/06/25 14:32:21;;;;;;;;;;;21.50;69.20;;;;;;4957074;29;20000;-79
2022/06/25 14:34:47;;;;;;;;;;;21.20;71.10;;;;;;4956737;28;19911;-78
2022/06/25 14:42:41;;;;;;;;;;;19.70;97.60;;;;;;4956551;29;19921;-80
2022/06/25 14:45:06;;;;;;;;;;;20.60;92.90;;;;;;4956747;29;19997;-78
2022/06/25 14:47:32;;;;;;;;;;;22.00;86.60;;;;;;4956384;28;19979;-78
2022/06/25 14:49:57;;;;;;;;;;;21.70;83.80;;;;;;4956379;28;19961;-80
2022/06/25 14:52:23;;;;;;;;;;;21.70;80.70;;;;;;4956707;29;20374;-78